ARF0112 UHSS-UHHH
Flight info
| Callsign | ARF0112 |
|---|---|
| Flight time | 1h 7m |
| Altitude | 30000 |
| Route | KENOM A969 MOGIS B150 NEBES |
| Aircraft | A319/M-VGD/A |
Departure
| Time | 2026-05-08 16:53 |
|---|---|
| Airport | Yuzhno-Sakhalinsk International Airport (UHSS) |
Arrival
| Time | 2026-05-08 18:01 |
|---|---|
| Airport | Khabarovsk Novy Airport (UHHH) |
| Time | Latitude | Longitude | Altitude | Speed | Heading |
|---|---|---|---|---|---|
| 2026-05-08 16:53 | 46.99931 | 142.68611 | 5992 ft | 236 kts | 347° |
| 2026-05-08 16:53 | 47.01551 | 142.68118 | 6817 ft | 240 kts | 347° |
| 2026-05-08 16:53 | 47.03207 | 142.67613 | 7458 ft | 253 kts | 347° |
| 2026-05-08 16:54 | 47.04963 | 142.66942 | 8015 ft | 268 kts | 334° |
| 2026-05-08 16:54 | 47.06425 | 142.65317 | 8786 ft | 270 kts | 307° |
| 2026-05-08 16:54 | 47.07241 | 142.62871 | 9625 ft | 272 kts | 282° |
| 2026-05-08 16:54 | 47.07246 | 142.60095 | 10355 ft | 279 kts | 257° |
| 2026-05-08 16:55 | 47.06567 | 142.57378 | 10887 ft | 293 kts | 248° |
| 2026-05-08 16:55 | 47.05740 | 142.54579 | 11657 ft | 298 kts | 247° |
| 2026-05-08 16:55 | 47.04914 | 142.51794 | 12463 ft | 301 kts | 247° |
| 2026-05-08 16:55 | 47.04091 | 142.48994 | 13176 ft | 304 kts | 247° |
| 2026-05-08 16:56 | 47.03253 | 142.46115 | 13616 ft | 305 kts | 247° |
| 2026-05-08 16:56 | 47.02430 | 142.43271 | 13781 ft | 305 kts | 248° |
| 2026-05-08 16:56 | 47.01608 | 142.40418 | 13784 ft | 304 kts | 248° |
| 2026-05-08 16:56 | 47.00779 | 142.37537 | 13789 ft | 304 kts | 248° |
| 2026-05-08 16:57 | 46.99960 | 142.34691 | 13791 ft | 304 kts | 247° |
| 2026-05-08 16:57 | 46.99142 | 142.31836 | 13793 ft | 303 kts | 247° |
| 2026-05-08 16:57 | 46.98328 | 142.28996 | 13793 ft | 303 kts | 247° |
| 2026-05-08 16:57 | 46.97514 | 142.26163 | 13793 ft | 303 kts | 247° |
| 2026-05-08 16:58 | 46.96698 | 142.23326 | 13793 ft | 303 kts | 247° |
| 2026-05-08 16:58 | 46.95884 | 142.20503 | 13793 ft | 302 kts | 247° |
| 2026-05-08 16:58 | 46.95065 | 142.17668 | 13793 ft | 302 kts | 247° |
| 2026-05-08 16:58 | 46.94246 | 142.14836 | 13793 ft | 302 kts | 247° |
| 2026-05-08 16:59 | 46.93424 | 142.11997 | 13793 ft | 299 kts | 247° |
| 2026-05-08 16:59 | 46.92609 | 142.09187 | 13793 ft | 299 kts | 247° |
| 2026-05-08 16:59 | 46.91802 | 142.06407 | 13793 ft | 298 kts | 247° |
| 2026-05-08 16:59 | 46.90990 | 142.03612 | 13793 ft | 297 kts | 247° |
| 2026-05-08 17:00 | 46.90184 | 142.00842 | 13793 ft | 296 kts | 247° |
| 2026-05-08 17:00 | 46.89372 | 141.98055 | 13793 ft | 296 kts | 247° |
| 2026-05-08 17:00 | 46.88564 | 141.95279 | 13793 ft | 296 kts | 247° |
| 2026-05-08 17:00 | 46.87758 | 141.92522 | 13793 ft | 295 kts | 247° |
| 2026-05-08 17:01 | 46.86948 | 141.89749 | 13793 ft | 295 kts | 247° |
| 2026-05-08 17:01 | 46.86142 | 141.86998 | 13793 ft | 295 kts | 247° |
| 2026-05-08 17:01 | 46.85330 | 141.84225 | 13793 ft | 295 kts | 248° |
| 2026-05-08 17:01 | 46.84784 | 141.81369 | 13783 ft | 295 kts | 266° |
| 2026-05-08 17:02 | 46.85026 | 141.78389 | 13834 ft | 301 kts | 288° |
| 2026-05-08 17:02 | 46.85960 | 141.75623 | 14397 ft | 308 kts | 297° |
| 2026-05-08 17:02 | 46.87015 | 141.72896 | 15284 ft | 306 kts | 297° |
| 2026-05-08 17:02 | 46.88054 | 141.70215 | 16016 ft | 308 kts | 297° |
| 2026-05-08 17:03 | 46.89116 | 141.67461 | 16707 ft | 312 kts | 297° |
| 2026-05-08 17:03 | 46.90170 | 141.64719 | 17375 ft | 315 kts | 297° |
| 2026-05-08 17:03 | 46.91241 | 141.61925 | 18030 ft | 318 kts | 297° |
| 2026-05-08 17:03 | 46.92234 | 141.59326 | 18616 ft | 321 kts | 296° |
| 2026-05-08 17:04 | 46.92683 | 141.58151 | 18876 ft | 322 kts | 296° |
| 2026-05-08 17:04 | 46.93780 | 141.55275 | 19503 ft | 325 kts | 296° |
| 2026-05-08 17:04 | 46.94893 | 141.52353 | 20122 ft | 328 kts | 296° |
| 2026-05-08 17:04 | 46.95995 | 141.49457 | 20715 ft | 331 kts | 296° |
| 2026-05-08 17:05 | 46.97116 | 141.46506 | 21299 ft | 334 kts | 296° |
| 2026-05-08 17:05 | 46.98246 | 141.43529 | 21872 ft | 337 kts | 296° |
| 2026-05-08 17:05 | 46.99399 | 141.40486 | 22435 ft | 340 kts | 296° |
| 2026-05-08 17:05 | 47.00534 | 141.37485 | 22947 ft | 344 kts | 296° |
| 2026-05-08 17:06 | 47.01705 | 141.34389 | 23421 ft | 348 kts | 295° |
| 2026-05-08 17:06 | 47.02884 | 141.31256 | 23941 ft | 351 kts | 295° |
| 2026-05-08 17:06 | 47.04050 | 141.28154 | 24454 ft | 354 kts | 295° |
| 2026-05-08 17:06 | 47.05241 | 141.24988 | 24957 ft | 357 kts | 295° |
| 2026-05-08 17:07 | 47.06449 | 141.21773 | 25455 ft | 360 kts | 295° |
| 2026-05-08 17:07 | 47.07657 | 141.18556 | 25947 ft | 362 kts | 295° |
| 2026-05-08 17:07 | 47.08876 | 141.15309 | 26458 ft | 363 kts | 295° |
| 2026-05-08 17:07 | 47.10086 | 141.12083 | 26931 ft | 365 kts | 295° |
| 2026-05-08 17:08 | 47.11319 | 141.08815 | 27375 ft | 367 kts | 295° |
| 2026-05-08 17:08 | 47.12558 | 141.05541 | 27800 ft | 370 kts | 295° |
| 2026-05-08 17:08 | 47.13809 | 141.02216 | 28211 ft | 372 kts | 295° |
| 2026-05-08 17:08 | 47.15069 | 140.98857 | 28604 ft | 375 kts | 295° |
| 2026-05-08 17:09 | 47.16327 | 140.95488 | 28990 ft | 377 kts | 295° |
| 2026-05-08 17:09 | 47.17588 | 140.92105 | 29369 ft | 379 kts | 295° |
| 2026-05-08 17:09 | 47.18851 | 140.88711 | 29699 ft | 382 kts | 295° |
| 2026-05-08 17:09 | 47.20115 | 140.85307 | 29772 ft | 383 kts | 295° |
| 2026-05-08 17:10 | 47.22669 | 140.78420 | 29785 ft | 383 kts | 295° |
| 2026-05-08 17:10 | 47.25218 | 140.71521 | 29787 ft | 383 kts | 294° |
| 2026-05-08 17:11 | 47.27744 | 140.64664 | 29788 ft | 383 kts | 295° |
| 2026-05-08 17:11 | 47.30277 | 140.57770 | 29788 ft | 383 kts | 294° |
| 2026-05-08 17:12 | 47.32788 | 140.50914 | 29788 ft | 383 kts | 294° |
| 2026-05-08 17:12 | 47.35321 | 140.43979 | 29788 ft | 383 kts | 295° |
| 2026-05-08 17:13 | 47.37846 | 140.37091 | 29788 ft | 383 kts | 295° |
| 2026-05-08 17:13 | 47.40373 | 140.30206 | 29788 ft | 382 kts | 294° |
| 2026-05-08 17:14 | 47.42900 | 140.23283 | 29788 ft | 383 kts | 294° |
| 2026-05-08 17:14 | 47.45409 | 140.16396 | 29788 ft | 383 kts | 294° |
| 2026-05-08 17:15 | 47.47929 | 140.09464 | 29788 ft | 382 kts | 294° |
| 2026-05-08 17:15 | 47.50441 | 140.02534 | 29788 ft | 382 kts | 294° |
| 2026-05-08 17:16 | 47.52940 | 139.95622 | 29788 ft | 382 kts | 294° |
| 2026-05-08 17:16 | 47.55445 | 139.88675 | 29788 ft | 383 kts | 294° |
| 2026-05-08 17:17 | 47.57948 | 139.81714 | 29788 ft | 383 kts | 294° |
| 2026-05-08 17:17 | 47.60440 | 139.74767 | 29788 ft | 383 kts | 294° |
| 2026-05-08 17:18 | 47.62918 | 139.67837 | 29788 ft | 383 kts | 294° |
| 2026-05-08 17:18 | 47.65397 | 139.60884 | 29787 ft | 383 kts | 294° |
| 2026-05-08 17:19 | 47.67875 | 139.53917 | 29788 ft | 383 kts | 294° |
| 2026-05-08 17:19 | 47.70360 | 139.46924 | 29787 ft | 382 kts | 294° |
| 2026-05-08 17:20 | 47.72844 | 139.39911 | 29788 ft | 383 kts | 294° |
| 2026-05-08 17:20 | 47.75310 | 139.32918 | 29789 ft | 382 kts | 293° |
| 2026-05-08 17:21 | 47.77732 | 139.25894 | 29788 ft | 381 kts | 292° |
| 2026-05-08 17:21 | 47.80050 | 139.18744 | 29788 ft | 381 kts | 291° |
| 2026-05-08 17:22 | 47.82343 | 139.11656 | 29789 ft | 382 kts | 291° |
| 2026-05-08 17:22 | 47.84659 | 139.04495 | 29793 ft | 382 kts | 292° |
| 2026-05-08 17:23 | 47.86962 | 138.97366 | 29800 ft | 382 kts | 292° |
| 2026-05-08 17:23 | 47.89263 | 138.90227 | 29807 ft | 383 kts | 292° |
| 2026-05-08 17:24 | 47.91570 | 138.83052 | 29812 ft | 383 kts | 292° |
| 2026-05-08 17:24 | 47.93875 | 138.75858 | 29813 ft | 383 kts | 292° |
| 2026-05-08 17:25 | 47.96156 | 138.68723 | 29814 ft | 383 kts | 292° |
| 2026-05-08 17:25 | 47.98448 | 138.61528 | 29814 ft | 383 kts | 292° |
| 2026-05-08 17:26 | 48.00732 | 138.54340 | 29814 ft | 383 kts | 292° |
| 2026-05-08 17:26 | 48.03009 | 138.47153 | 29814 ft | 383 kts | 292° |
| 2026-05-08 17:27 | 48.05260 | 138.39964 | 29813 ft | 382 kts | 290° |
| 2026-05-08 17:27 | 48.07119 | 138.32552 | 29814 ft | 379 kts | 284° |
| 2026-05-08 17:28 | 48.08452 | 138.24921 | 29814 ft | 378 kts | 280° |
| 2026-05-08 17:28 | 48.09061 | 138.21069 | 29701 ft | 378 kts | 280° |
| 2026-05-08 17:28 | 48.09663 | 138.17261 | 29450 ft | 376 kts | 280° |
| 2026-05-08 17:29 | 48.10258 | 138.13495 | 29200 ft | 374 kts | 280° |
| 2026-05-08 17:29 | 48.10867 | 138.09709 | 28919 ft | 371 kts | 280° |
| 2026-05-08 17:29 | 48.11466 | 138.05977 | 28663 ft | 370 kts | 280° |
| 2026-05-08 17:29 | 48.12069 | 138.02190 | 28410 ft | 369 kts | 280° |
| 2026-05-08 17:30 | 48.12658 | 137.98459 | 28159 ft | 368 kts | 280° |
| 2026-05-08 17:30 | 48.13240 | 137.94756 | 27910 ft | 367 kts | 280° |
| 2026-05-08 17:30 | 48.13821 | 137.91040 | 27659 ft | 365 kts | 280° |
| 2026-05-08 17:30 | 48.14400 | 137.87334 | 27408 ft | 364 kts | 280° |
| 2026-05-08 17:31 | 48.14966 | 137.83690 | 27161 ft | 362 kts | 280° |
| 2026-05-08 17:31 | 48.15540 | 137.79990 | 26908 ft | 361 kts | 280° |
| 2026-05-08 17:31 | 48.16102 | 137.76353 | 26659 ft | 360 kts | 280° |
| 2026-05-08 17:31 | 48.16666 | 137.72690 | 26408 ft | 358 kts | 280° |
| 2026-05-08 17:32 | 48.17223 | 137.69073 | 26159 ft | 357 kts | 280° |
| 2026-05-08 17:32 | 48.17777 | 137.65463 | 25909 ft | 356 kts | 280° |
| 2026-05-08 17:32 | 48.18328 | 137.61864 | 25659 ft | 354 kts | 280° |
| 2026-05-08 17:32 | 48.18882 | 137.58244 | 25407 ft | 353 kts | 280° |
| 2026-05-08 17:33 | 48.19424 | 137.54688 | 25159 ft | 352 kts | 280° |
| 2026-05-08 17:33 | 48.19971 | 137.51085 | 24906 ft | 351 kts | 281° |
| 2026-05-08 17:33 | 48.20508 | 137.47553 | 24658 ft | 349 kts | 281° |
| 2026-05-08 17:33 | 48.21050 | 137.43968 | 24405 ft | 348 kts | 280° |
| 2026-05-08 17:34 | 48.21582 | 137.40446 | 24156 ft | 347 kts | 280° |
| 2026-05-08 17:34 | 48.22111 | 137.36923 | 23905 ft | 345 kts | 281° |
| 2026-05-08 17:34 | 48.22635 | 137.33431 | 23658 ft | 344 kts | 280° |
| 2026-05-08 17:34 | 48.23162 | 137.29900 | 23404 ft | 343 kts | 280° |
| 2026-05-08 17:35 | 48.23680 | 137.26427 | 23154 ft | 341 kts | 280° |
| 2026-05-08 17:35 | 48.24198 | 137.22954 | 22903 ft | 340 kts | 280° |
| 2026-05-08 17:35 | 48.24715 | 137.19487 | 22651 ft | 339 kts | 280° |
| 2026-05-08 17:35 | 48.25232 | 137.16048 | 22401 ft | 338 kts | 280° |
| 2026-05-08 17:36 | 48.25747 | 137.12617 | 22151 ft | 336 kts | 280° |
| 2026-05-08 17:36 | 48.26251 | 137.09236 | 21903 ft | 335 kts | 280° |
| 2026-05-08 17:36 | 48.26766 | 137.05778 | 21649 ft | 334 kts | 280° |
| 2026-05-08 17:36 | 48.27263 | 137.02425 | 21402 ft | 333 kts | 280° |
| 2026-05-08 17:37 | 48.27771 | 136.98981 | 21148 ft | 332 kts | 280° |
| 2026-05-08 17:37 | 48.28265 | 136.95624 | 20899 ft | 331 kts | 280° |
| 2026-05-08 17:37 | 48.28757 | 136.92273 | 20650 ft | 330 kts | 280° |
| 2026-05-08 17:37 | 48.29251 | 136.88911 | 20399 ft | 329 kts | 280° |
| 2026-05-08 17:38 | 48.29742 | 136.85559 | 20148 ft | 328 kts | 281° |
| 2026-05-08 17:38 | 48.30225 | 136.82257 | 19900 ft | 327 kts | 280° |
| 2026-05-08 17:38 | 48.30627 | 136.78845 | 19645 ft | 325 kts | 276° |
| 2026-05-08 17:38 | 48.30859 | 136.75478 | 19395 ft | 323 kts | 272° |
| 2026-05-08 17:39 | 48.30938 | 136.72122 | 19146 ft | 322 kts | 270° |
| 2026-05-08 17:39 | 48.30969 | 136.68794 | 18880 ft | 319 kts | 270° |
| 2026-05-08 17:39 | 48.30996 | 136.65440 | 18458 ft | 318 kts | 270° |
| 2026-05-08 17:39 | 48.31020 | 136.62138 | 18015 ft | 317 kts | 270° |
| 2026-05-08 17:40 | 48.31044 | 136.58832 | 17598 ft | 315 kts | 270° |
| 2026-05-08 17:40 | 48.31067 | 136.55537 | 17188 ft | 313 kts | 270° |
| 2026-05-08 17:40 | 48.31089 | 136.52300 | 16783 ft | 312 kts | 270° |
| 2026-05-08 17:40 | 48.31111 | 136.49045 | 16376 ft | 310 kts | 270° |
| 2026-05-08 17:41 | 48.31132 | 136.45807 | 16087 ft | 308 kts | 270° |
| 2026-05-08 17:41 | 48.31151 | 136.42600 | 15837 ft | 308 kts | 270° |
| 2026-05-08 17:41 | 48.31170 | 136.39395 | 15587 ft | 307 kts | 270° |
| 2026-05-08 17:41 | 48.31187 | 136.36185 | 15337 ft | 306 kts | 270° |
| 2026-05-08 17:42 | 48.31204 | 136.32973 | 15086 ft | 305 kts | 269° |
| 2026-05-08 17:42 | 48.31219 | 136.29758 | 14833 ft | 304 kts | 269° |
| 2026-05-08 17:42 | 48.31234 | 136.26581 | 14582 ft | 303 kts | 269° |
| 2026-05-08 17:42 | 48.31249 | 136.23387 | 14330 ft | 302 kts | 269° |
| 2026-05-08 17:43 | 48.31257 | 136.20259 | 14081 ft | 301 kts | 269° |
| 2026-05-08 17:43 | 48.31248 | 136.17097 | 13829 ft | 301 kts | 269° |
| 2026-05-08 17:43 | 48.31233 | 136.13980 | 13581 ft | 300 kts | 268° |
| 2026-05-08 17:43 | 48.31218 | 136.10860 | 13330 ft | 299 kts | 268° |
| 2026-05-08 17:44 | 48.31201 | 136.07703 | 13077 ft | 298 kts | 268° |
| 2026-05-08 17:44 | 48.31184 | 136.04610 | 12827 ft | 297 kts | 269° |
| 2026-05-08 17:44 | 48.31166 | 136.01492 | 12575 ft | 296 kts | 269° |
| 2026-05-08 17:44 | 48.31148 | 135.98438 | 12294 ft | 293 kts | 269° |
| 2026-05-08 17:45 | 48.31129 | 135.95352 | 11871 ft | 293 kts | 269° |
| 2026-05-08 17:45 | 48.31108 | 135.92328 | 11460 ft | 292 kts | 269° |
| 2026-05-08 17:45 | 48.31088 | 135.89287 | 11064 ft | 290 kts | 269° |
| 2026-05-08 17:45 | 48.31067 | 135.86279 | 10667 ft | 288 kts | 269° |
| 2026-05-08 17:46 | 48.31044 | 135.83250 | 10264 ft | 286 kts | 269° |
| 2026-05-08 17:46 | 48.31022 | 135.80281 | 9867 ft | 285 kts | 269° |
| 2026-05-08 17:46 | 48.30999 | 135.77312 | 9471 ft | 283 kts | 269° |
| 2026-05-08 17:46 | 48.30975 | 135.74381 | 9238 ft | 275 kts | 269° |
| 2026-05-08 17:47 | 48.30952 | 135.71526 | 9012 ft | 268 kts | 269° |
| 2026-05-08 17:47 | 48.30929 | 135.68773 | 8666 ft | 267 kts | 269° |
| 2026-05-08 17:47 | 48.30904 | 135.65997 | 8297 ft | 266 kts | 269° |
| 2026-05-08 17:47 | 48.30888 | 135.64133 | 8055 ft | 265 kts | 269° |
| 2026-05-08 17:48 | 48.30854 | 135.60535 | 7588 ft | 263 kts | 269° |
| 2026-05-08 17:48 | 48.30828 | 135.57799 | 7233 ft | 262 kts | 269° |
| 2026-05-08 17:48 | 48.30802 | 135.55081 | 6880 ft | 261 kts | 270° |
| 2026-05-08 17:48 | 48.30775 | 135.52345 | 6524 ft | 259 kts | 270° |
| 2026-05-08 17:49 | 48.30748 | 135.49658 | 6174 ft | 258 kts | 270° |
| 2026-05-08 17:49 | 48.30719 | 135.46953 | 5822 ft | 257 kts | 270° |
| 2026-05-08 17:49 | 48.30691 | 135.44292 | 5476 ft | 256 kts | 270° |
| 2026-05-08 17:49 | 48.30661 | 135.41599 | 5125 ft | 255 kts | 270° |
| 2026-05-08 17:50 | 48.30631 | 135.38933 | 4780 ft | 254 kts | 270° |
| 2026-05-08 17:50 | 48.30601 | 135.36295 | 4443 ft | 252 kts | 270° |
| 2026-05-08 17:50 | 48.30571 | 135.33661 | 4101 ft | 251 kts | 269° |
| 2026-05-08 17:50 | 48.30539 | 135.31064 | 3978 ft | 250 kts | 269° |
| 2026-05-08 17:51 | 48.30507 | 135.28418 | 3971 ft | 252 kts | 269° |
| 2026-05-08 17:51 | 48.30475 | 135.25801 | 3968 ft | 252 kts | 269° |
| 2026-05-08 17:51 | 48.30441 | 135.23152 | 3967 ft | 252 kts | 269° |
| 2026-05-08 17:51 | 48.30407 | 135.20538 | 3967 ft | 252 kts | 269° |
| 2026-05-08 17:52 | 48.30373 | 135.17886 | 3966 ft | 252 kts | 269° |
| 2026-05-08 17:52 | 48.30338 | 135.15248 | 3966 ft | 252 kts | 269° |
| 2026-05-08 17:52 | 48.30301 | 135.10071 | 3959 ft | 240 kts | 277° |
| 2026-05-08 17:53 | 48.30859 | 135.07785 | 3954 ft | 224 kts | 306° |
| 2026-05-08 17:53 | 48.31824 | 135.06078 | 3965 ft | 209 kts | 312° |
| 2026-05-08 17:53 | 48.32794 | 135.04518 | 3962 ft | 194 kts | 312° |
| 2026-05-08 17:53 | 48.33647 | 135.03146 | 4039 ft | 165 kts | 312° |
| 2026-05-08 17:54 | 48.34367 | 135.01975 | 3982 ft | 146 kts | 311° |
| 2026-05-08 17:54 | 48.35051 | 135.00850 | 3972 ft | 144 kts | 311° |
| 2026-05-08 17:54 | 48.35723 | 134.99736 | 3982 ft | 140 kts | 311° |
| 2026-05-08 17:54 | 48.36371 | 134.98659 | 3966 ft | 136 kts | 311° |
| 2026-05-08 17:55 | 48.37107 | 134.97812 | 3941 ft | 137 kts | 346° |
| 2026-05-08 17:55 | 48.37992 | 134.98228 | 3953 ft | 138 kts | 37° |
| 2026-05-08 17:55 | 48.38691 | 134.99220 | 3964 ft | 136 kts | 41° |
| 2026-05-08 17:55 | 48.39371 | 135.00191 | 3965 ft | 135 kts | 40° |
| 2026-05-08 17:56 | 48.40068 | 135.01169 | 3966 ft | 135 kts | 40° |
| 2026-05-08 17:56 | 48.40754 | 135.02119 | 3966 ft | 136 kts | 39° |
| 2026-05-08 17:56 | 48.41457 | 135.03102 | 3881 ft | 138 kts | 42° |
| 2026-05-08 17:56 | 48.42141 | 135.04141 | 3459 ft | 142 kts | 40° |
| 2026-05-08 17:57 | 48.42865 | 135.05151 | 3038 ft | 144 kts | 40° |
| 2026-05-08 17:57 | 48.43632 | 135.06143 | 2635 ft | 144 kts | 37° |
| 2026-05-08 17:57 | 48.44382 | 135.07129 | 2241 ft | 145 kts | 39° |
| 2026-05-08 17:57 | 48.45124 | 135.08173 | 1840 ft | 145 kts | 39° |
| 2026-05-08 17:58 | 48.45849 | 135.09184 | 1510 ft | 140 kts | 40° |
| 2026-05-08 17:58 | 48.46579 | 135.10121 | 1165 ft | 137 kts | 37° |
| 2026-05-08 17:58 | 48.47279 | 135.11043 | 939 ft | 129 kts | 40° |
| 2026-05-08 17:58 | 48.47939 | 135.11946 | 896 ft | 128 kts | 40° |
| 2026-05-08 17:59 | 48.48594 | 135.12849 | 901 ft | 128 kts | 40° |
| 2026-05-08 17:59 | 48.49280 | 135.13744 | 815 ft | 129 kts | 37° |
| 2026-05-08 17:59 | 48.49938 | 135.14645 | 597 ft | 127 kts | 40° |
| 2026-05-08 17:59 | 48.50588 | 135.15543 | 524 ft | 126 kts | 38° |
| 2026-05-08 18:00 | 48.51252 | 135.16431 | 428 ft | 127 kts | 39° |
| 2026-05-08 18:00 | 48.52507 | 135.18135 | 253 ft | 90 kts | 39° |
| 2026-05-08 18:00 | 48.52809 | 135.18556 | 253 ft | 54 kts | 40° |
| 2026-05-08 18:01 | 48.53124 | 135.18565 | 253 ft | 39 kts | 274° |
| 2026-05-08 18:01 | 48.53030 | 135.18324 | 252 ft | 24 kts | 179° |
| 2026-05-08 18:01 | 48.52871 | 135.18224 | 253 ft | 24 kts | 221° |
| 2026-05-08 18:01 | 48.52803 | 135.18126 | 252 ft | 14 kts | 234° |
| 2026-05-08 18:02 | 48.52804 | 135.17981 | 253 ft | 10 kts | 235° |
| 2026-05-08 18:02 | 48.52789 | 135.17953 | 252 ft | 0 kts | 239° |
| 2026-05-08 18:02 | 48.52799 | 135.17934 | 252 ft | 5 kts | 324° |
| 2026-05-08 18:02 | 48.52866 | 135.17906 | 252 ft | 14 kts | 329° |
| 2026-05-08 18:03 | 48.52931 | 135.17773 | 253 ft | 17 kts | 259° |
| 2026-05-08 18:03 | 48.52834 | 135.17613 | 253 ft | 24 kts | 223° |
| 2026-05-08 18:03 | 48.52678 | 135.17488 | 253 ft | 26 kts | 173° |
| 2026-05-08 18:03 | 48.52541 | 135.17418 | 252 ft | 21 kts | 186° |
| 2026-05-08 18:04 | 48.52511 | 135.17502 | 252 ft | 9 kts | 27° |
| 2026-05-08 18:04 | 48.52576 | 135.17452 | 252 ft | 15 kts | 316° |
| 2026-05-08 18:04 | 48.52637 | 135.17362 | 252 ft | 0 kts | 312° |